createdAt,value
2023-01-18T00:01:13.976Z,2.80
2023-01-18T00:03:42.161Z,2.63
2023-01-18T00:06:10.554Z,2.60
2023-01-18T00:08:38.744Z,2.88
2023-01-18T00:11:16.867Z,4.10
2023-01-18T00:13:43.834Z,2.22
2023-01-18T00:16:12.777Z,2.67
2023-01-18T00:18:40.091Z,2.60
2023-01-18T00:21:08.940Z,2.90
2023-01-18T00:23:36.043Z,3.00
2023-01-18T00:26:07.792Z,3.53
2023-01-18T00:28:34.566Z,4.40
2023-01-18T00:31:01.221Z,17.67
2023-01-18T00:33:27.997Z,14.48
2023-01-18T00:35:59.508Z,19.95
2023-01-18T00:38:26.744Z,11.20
2023-01-18T00:40:53.391Z,6.80
2023-01-18T00:43:38.614Z,11.48
2023-01-18T00:46:10.806Z,17.08
2023-01-18T00:48:41.393Z,26.13
2023-01-18T00:51:11.450Z,22.23
2023-01-18T00:53:38.276Z,26.90
2023-01-18T00:56:09.965Z,21.38
2023-01-18T00:58:37.531Z,17.48
2023-01-18T01:01:05.919Z,7.25
2023-01-18T01:03:52.701Z,14.75
2023-01-18T01:06:43.278Z,15.40
2023-01-18T01:09:11.885Z,18.17
2023-01-18T01:11:38.591Z,13.52
2023-01-18T01:14:23.969Z,9.23
2023-01-18T01:17:09.238Z,8.43
2023-01-18T01:22:39.679Z,13.35
2023-01-18T01:25:25.138Z,22.35
2023-01-18T01:27:52.455Z,25.08
2023-01-18T01:30:19.107Z,26.27
2023-01-18T01:32:45.857Z,14.70
2023-01-18T01:35:12.497Z,24.40
2023-01-18T01:37:39.252Z,19.48
2023-01-18T01:40:06.460Z,9.98
2023-01-18T01:42:33.221Z,17.20
2023-01-18T01:44:59.839Z,6.00
2023-01-18T01:47:35.853Z,6.93
2023-01-18T01:50:40.832Z,12.70
2023-01-18T01:53:09.076Z,11.52
2023-01-18T01:55:37.672Z,6.82
2023-01-18T01:58:11.243Z,6.95
2023-01-18T02:00:38.068Z,6.47
2023-01-18T02:03:07.779Z,8.15
2023-01-18T02:05:36.638Z,6.43
2023-01-18T02:08:03.827Z,6.25
2023-01-18T02:10:31.000Z,6.13
2023-01-18T02:12:59.249Z,5.85
2023-01-18T02:15:33.328Z,14.48
2023-01-18T02:18:10.092Z,27.90
2023-01-18T02:21:17.441Z,27.20
2023-01-18T02:24:23.334Z,35.88
2023-01-18T02:29:32.397Z,26.05
2023-01-18T02:32:05.242Z,25.33
2023-01-18T02:35:00.957Z,26.75
2023-01-18T02:37:42.525Z,31.92
2023-01-18T02:40:23.664Z,33.10
2023-01-18T02:43:09.390Z,33.70
2023-01-18T02:46:00.753Z,38.00
2023-01-18T02:48:41.265Z,43.58
2023-01-18T02:51:08.443Z,37.72
2023-01-18T02:53:40.639Z,39.92
2023-01-18T02:56:18.443Z,36.10
2023-01-18T02:58:58.733Z,39.70
2023-01-18T03:01:40.233Z,36.22
2023-01-18T03:04:17.020Z,36.45
2023-01-18T03:06:47.104Z,28.25
2023-01-18T03:09:18.467Z,34.15
2023-01-18T03:12:01.235Z,26.27
2023-01-18T03:14:49.675Z,36.83
2023-01-18T03:17:36.455Z,34.53
2023-01-18T03:20:11.138Z,34.10
2023-01-18T03:23:28.992Z,31.58
2023-01-18T03:25:57.494Z,31.20
2023-01-18T03:28:56.667Z,24.88
2023-01-18T03:31:49.020Z,19.10
2023-01-18T03:34:39.253Z,21.60
2023-01-18T03:37:12.036Z,16.50
2023-01-18T03:39:45.100Z,21.30
2023-01-18T03:42:28.430Z,26.25
2023-01-18T03:45:02.957Z,21.73
2023-01-18T03:47:29.737Z,23.98
2023-01-18T03:49:56.589Z,24.45
2023-01-18T03:52:37.602Z,32.97
2023-01-18T03:55:27.871Z,28.73
2023-01-18T03:58:09.701Z,30.83
2023-01-18T04:00:37.434Z,28.92
2023-01-18T04:03:05.019Z,27.30
2023-01-18T04:05:31.850Z,21.60
2023-01-18T04:07:58.517Z,11.90
2023-01-18T04:10:25.194Z,13.98
2023-01-18T04:12:52.012Z,13.35
2023-01-18T04:15:19.523Z,12.90
2023-01-18T04:17:49.575Z,13.90
2023-01-18T04:20:16.437Z,13.15
2023-01-18T04:22:43.078Z,15.38
2023-01-18T04:25:09.928Z,22.27
2023-01-18T04:27:36.619Z,25.48
2023-01-18T04:30:06.308Z,22.83
2023-01-18T04:32:33.035Z,26.80
2023-01-18T04:34:59.812Z,18.67
2023-01-18T04:37:34.051Z,16.75
2023-01-18T04:40:01.274Z,30.02
2023-01-18T04:42:27.966Z,28.52
2023-01-18T04:44:54.749Z,24.23
2023-01-18T04:47:21.571Z,26.48
2023-01-18T04:49:48.341Z,24.27
2023-01-18T04:52:14.968Z,29.23
2023-01-18T04:54:41.602Z,24.25
2023-01-18T04:57:08.225Z,24.92
2023-01-18T04:59:34.887Z,24.70
2023-01-18T05:02:01.523Z,34.35
2023-01-18T05:04:28.214Z,36.28
2023-01-18T05:06:54.920Z,36.67
2023-01-18T05:09:21.549Z,14.05
2023-01-18T05:11:48.210Z,11.57
2023-01-18T05:14:15.037Z,10.93
2023-01-18T05:16:41.739Z,8.73
2023-01-18T05:19:08.591Z,8.07
2023-01-18T05:21:35.277Z,10.60
2023-01-18T05:24:01.990Z,7.40
2023-01-18T05:26:28.654Z,9.00
2023-01-18T05:28:58.896Z,9.70
2023-01-18T05:31:25.784Z,10.27
2023-01-18T05:33:52.468Z,14.07
2023-01-18T05:36:19.205Z,13.70
2023-01-18T05:38:46.707Z,17.58
2023-01-18T05:41:13.332Z,23.33
2023-01-18T05:43:40.471Z,17.05
2023-01-18T05:46:07.237Z,20.85
2023-01-18T05:48:33.992Z,28.55
2023-01-18T05:51:00.669Z,28.58
2023-01-18T05:53:27.303Z,28.65
2023-01-18T05:55:58.982Z,24.88
2023-01-18T05:58:27.182Z,35.58
2023-01-18T06:00:53.996Z,38.80
2023-01-18T06:03:21.537Z,16.42
2023-01-18T06:05:48.459Z,22.98
2023-01-18T06:08:15.595Z,24.30
2023-01-18T06:10:42.305Z,36.40
2023-01-18T06:13:09.289Z,22.48
2023-01-18T06:15:36.424Z,24.38
2023-01-18T06:18:03.081Z,36.25
2023-01-18T06:20:30.623Z,24.50
2023-01-18T06:22:58.260Z,40.78
2023-01-18T06:25:26.058Z,36.22
2023-01-18T06:27:52.722Z,32.83
2023-01-18T06:30:19.801Z,34.85
2023-01-18T06:32:48.443Z,35.28
2023-01-18T06:35:15.284Z,38.13
2023-01-18T06:37:46.383Z,43.28
2023-01-18T06:40:13.387Z,47.35
2023-01-18T06:42:40.659Z,58.85
2023-01-18T06:45:08.130Z,57.47
2023-01-18T06:47:34.832Z,49.45
2023-01-18T06:50:01.594Z,48.95
2023-01-18T06:52:29.384Z,40.00
2023-01-18T06:54:56.072Z,44.22
2023-01-18T06:57:23.905Z,54.03
2023-01-18T06:59:53.164Z,45.17
2023-01-18T07:02:20.988Z,49.75
2023-01-18T07:04:48.057Z,43.58
2023-01-18T07:07:14.855Z,41.67
2023-01-18T07:09:41.693Z,32.67
2023-01-18T07:12:08.575Z,40.10
2023-01-18T07:14:35.269Z,20.25
2023-01-18T07:17:01.956Z,24.02
2023-01-18T07:19:28.577Z,15.80
2023-01-18T07:21:55.466Z,17.77
2023-01-18T07:24:22.378Z,32.63
2023-01-18T07:26:49.145Z,42.25
2023-01-18T07:29:15.799Z,37.33
2023-01-18T07:31:42.515Z,36.97
2023-01-18T07:34:10.224Z,29.20
2023-01-18T07:36:39.227Z,28.02
2023-01-18T07:39:06.538Z,37.95
2023-01-18T07:41:33.245Z,18.63
2023-01-18T07:44:00.285Z,24.17
2023-01-18T07:46:27.359Z,16.30
2023-01-18T07:48:54.069Z,16.20
2023-01-18T07:51:22.414Z,22.63
2023-01-18T07:53:50.126Z,17.02
2023-01-18T07:56:17.988Z,48.50
2023-01-18T07:58:45.538Z,45.28
2023-01-18T08:01:17.587Z,42.17
2023-01-18T08:03:45.306Z,42.30
2023-01-18T08:06:16.962Z,45.35
2023-01-18T08:08:44.155Z,45.22
2023-01-18T08:11:11.475Z,47.90
2023-01-18T08:13:38.562Z,47.20
2023-01-18T08:16:07.550Z,45.22
2023-01-18T08:18:34.726Z,27.92
2023-01-18T08:21:01.390Z,26.80
2023-01-18T08:23:28.291Z,12.75
2023-01-18T08:25:55.454Z,11.30
2023-01-18T08:28:22.180Z,11.85
2023-01-18T08:30:49.060Z,12.15
2023-01-18T08:33:15.823Z,10.65
2023-01-18T08:35:47.234Z,13.93
2023-01-18T08:38:15.564Z,35.90
2023-01-18T08:40:42.702Z,27.52
2023-01-18T08:43:11.765Z,19.95
2023-01-18T08:45:38.507Z,21.02
2023-01-18T08:48:07.476Z,23.00
2023-01-18T08:50:35.651Z,12.63
2023-01-18T08:53:02.814Z,12.05
2023-01-18T08:55:29.847Z,10.25
2023-01-18T08:57:57.896Z,11.82
2023-01-18T09:00:28.395Z,11.90
2023-01-18T09:02:55.239Z,10.35
2023-01-18T09:05:22.614Z,10.60
2023-01-18T09:07:50.800Z,10.98
2023-01-18T09:10:17.591Z,11.25
2023-01-18T09:12:44.314Z,11.43
2023-01-18T09:15:11.060Z,12.02
2023-01-18T09:17:37.872Z,11.85
2023-01-18T09:20:09.624Z,11.05
2023-01-18T09:22:37.022Z,11.32
2023-01-18T09:25:04.196Z,8.15
2023-01-18T09:27:31.096Z,7.03
2023-01-18T09:29:57.760Z,8.32
2023-01-18T09:32:25.458Z,7.90
2023-01-18T09:34:53.021Z,8.35
2023-01-18T09:37:19.977Z,11.85
2023-01-18T09:39:52.189Z,10.55
2023-01-18T09:42:25.207Z,10.88
2023-01-18T09:44:58.725Z,11.00
2023-01-18T09:47:29.240Z,10.73
2023-01-18T09:50:17.185Z,9.77
2023-01-18T09:53:06.882Z,11.32
2023-01-18T09:55:48.921Z,8.95
2023-01-18T09:58:27.764Z,9.05
2023-01-18T10:01:12.066Z,8.60
2023-01-18T10:03:47.058Z,7.70
2023-01-18T10:08:59.169Z,7.72
2023-01-18T10:11:48.078Z,7.90
2023-01-18T10:14:24.619Z,8.05
2023-01-18T10:16:58.127Z,7.78
2023-01-18T10:19:28.167Z,7.53
2023-01-18T10:22:19.541Z,8.25
2023-01-18T10:24:50.197Z,7.50
2023-01-18T10:27:31.990Z,8.10
2023-01-18T10:30:25.553Z,7.68
2023-01-18T10:32:55.361Z,5.30
2023-01-18T10:35:26.990Z,5.75
2023-01-18T10:37:58.261Z,5.90
2023-01-18T10:40:25.174Z,5.65
2023-01-18T10:42:54.394Z,5.60
2023-01-18T10:45:26.447Z,5.20
2023-01-18T10:47:55.242Z,4.93
2023-01-18T10:50:33.104Z,4.47
2023-01-18T10:53:32.585Z,5.05
2023-01-18T10:56:17.082Z,5.43
2023-01-18T10:58:51.924Z,5.25
2023-01-18T11:03:52.580Z,5.22
2023-01-18T11:06:22.602Z,5.55
2023-01-18T11:08:50.324Z,6.75
2023-01-18T11:11:51.975Z,5.85
2023-01-18T11:14:28.175Z,6.35
2023-01-18T11:17:03.068Z,5.93
2023-01-18T11:19:30.308Z,12.32
2023-01-18T11:21:57.055Z,7.30
2023-01-18T11:24:27.681Z,6.53
2023-01-18T11:27:15.319Z,6.30
2023-01-18T11:29:44.365Z,7.05
2023-01-18T11:32:26.965Z,5.65
2023-01-18T11:34:55.422Z,6.88
2023-01-18T11:37:40.198Z,6.57
2023-01-18T11:40:19.107Z,5.55
2023-01-18T11:42:46.629Z,7.35
2023-01-18T11:45:25.442Z,10.75
2023-01-18T11:48:05.556Z,5.45
2023-01-18T11:50:35.806Z,6.07
2023-01-18T11:53:14.504Z,5.32
2023-01-18T11:56:06.303Z,4.60
2023-01-18T11:58:34.854Z,5.70
2023-01-18T12:01:22.079Z,5.20
2023-01-18T12:03:55.451Z,6.03
2023-01-18T12:06:28.208Z,5.53
2023-01-18T12:09:03.537Z,5.60
2023-01-18T12:11:48.379Z,5.10
2023-01-18T12:14:46.073Z,4.82
2023-01-18T12:17:31.551Z,5.00
2023-01-18T12:20:23.012Z,5.72
2023-01-18T12:23:04.881Z,5.07
2023-01-18T12:26:12.641Z,4.65
2023-01-18T12:28:56.361Z,4.00
2023-01-18T12:31:48.706Z,4.35
2023-01-18T12:34:20.503Z,16.15
2023-01-18T12:37:09.791Z,6.68
2023-01-18T12:40:03.504Z,4.18
2023-01-18T12:42:32.907Z,4.70
2023-01-18T12:45:12.282Z,4.25
2023-01-18T12:47:40.795Z,4.00
2023-01-18T12:50:23.314Z,4.15
2023-01-18T12:52:54.497Z,4.40
2023-01-18T12:55:23.764Z,4.60
2023-01-18T12:57:52.995Z,4.68
2023-01-18T13:00:23.621Z,5.00
2023-01-18T13:02:52.928Z,4.80
2023-01-18T13:05:35.068Z,4.30
2023-01-18T13:08:30.404Z,6.07
2023-01-18T13:11:14.561Z,3.92
2023-01-18T13:13:42.098Z,4.57
2023-01-18T13:16:17.799Z,8.05
2023-01-18T13:19:06.097Z,4.28
2023-01-18T13:21:48.141Z,5.18
2023-01-18T13:25:00.857Z,3.58
2023-01-18T13:27:27.505Z,4.30
2023-01-18T13:29:54.248Z,3.75
2023-01-18T13:32:35.749Z,3.30
2023-01-18T13:35:20.511Z,3.88
2023-01-18T13:38:01.871Z,3.55
2023-01-18T13:40:42.248Z,3.38
2023-01-18T13:43:30.133Z,4.22
2023-01-18T13:46:03.047Z,4.40
2023-01-18T13:48:51.285Z,5.70
2023-01-18T13:51:39.386Z,3.83
2023-01-18T13:54:07.812Z,5.90
2023-01-18T13:56:38.804Z,3.58
2023-01-18T13:59:11.645Z,3.72
2023-01-18T14:01:40.028Z,3.67
2023-01-18T14:04:08.892Z,3.90
2023-01-18T14:06:37.978Z,3.00
2023-01-18T14:09:11.242Z,3.33
2023-01-18T14:11:41.999Z,3.13
2023-01-18T14:14:11.748Z,3.40
2023-01-18T14:17:12.725Z,2.90
2023-01-18T14:20:02.606Z,3.00
2023-01-18T14:22:54.934Z,3.53
2023-01-18T14:25:46.508Z,3.08
2023-01-18T14:28:36.646Z,3.08
2023-01-18T14:31:04.344Z,3.10
2023-01-18T14:33:37.607Z,2.47
2023-01-18T14:36:06.565Z,3.20
2023-01-18T14:38:33.249Z,3.00
2023-01-18T14:41:05.214Z,2.85
2023-01-18T14:43:34.604Z,3.13
2023-01-18T14:46:04.832Z,3.20
2023-01-18T14:48:34.499Z,2.97
2023-01-18T14:51:02.235Z,2.67
2023-01-18T14:53:34.622Z,3.10
2023-01-18T14:56:04.518Z,4.03
2023-01-18T14:58:35.702Z,3.90
2023-01-18T15:01:02.783Z,4.10
2023-01-18T15:03:30.931Z,3.55
2023-01-18T15:06:12.987Z,3.38
2023-01-18T15:08:40.068Z,3.40
2023-01-18T15:11:07.392Z,3.03
2023-01-18T15:13:59.150Z,3.33
2023-01-18T15:16:27.955Z,3.85
2023-01-18T15:18:55.659Z,3.53
2023-01-18T15:21:28.997Z,3.28
2023-01-18T15:24:05.309Z,3.60
2023-01-18T15:26:45.064Z,3.58
2023-01-18T15:29:15.124Z,3.67
2023-01-18T15:31:49.420Z,3.92
2023-01-18T15:34:17.077Z,4.10
2023-01-18T15:36:44.722Z,4.00
2023-01-18T15:39:13.267Z,3.90
2023-01-18T15:41:41.867Z,3.72
2023-01-18T15:44:41.714Z,3.80
2023-01-18T15:47:36.867Z,3.97
2023-01-18T15:50:06.215Z,3.72
2023-01-18T15:52:43.700Z,3.70
2023-01-18T15:55:24.451Z,3.92
2023-01-18T15:58:07.162Z,4.30
2023-01-18T16:00:40.984Z,4.10
2023-01-18T16:03:23.501Z,4.05
2023-01-18T16:06:37.366Z,4.00
2023-01-18T16:09:11.519Z,3.80
2023-01-18T16:11:44.093Z,4.00
2023-01-18T16:14:28.946Z,4.00
2023-01-18T16:17:05.027Z,3.88
2023-01-18T16:19:34.812Z,4.80
2023-01-18T16:22:03.467Z,8.80
2023-01-18T16:24:36.794Z,9.50
2023-01-18T16:27:15.428Z,8.23
2023-01-18T16:29:47.534Z,7.78
2023-01-18T16:32:29.146Z,6.50
2023-01-18T16:35:17.143Z,5.60
2023-01-18T16:37:44.734Z,6.63
2023-01-18T16:40:16.942Z,5.50
2023-01-18T16:43:02.041Z,5.13
2023-01-18T16:45:31.033Z,6.38
2023-01-18T16:47:58.069Z,6.20
2023-01-18T16:50:25.235Z,6.07
2023-01-18T16:52:51.924Z,5.90
2023-01-18T16:55:18.761Z,5.10
2023-01-18T16:57:46.077Z,4.55
2023-01-18T17:00:28.452Z,4.68
2023-01-18T17:02:55.565Z,4.93
2023-01-18T17:05:22.295Z,5.30
2023-01-18T17:07:50.658Z,6.40
2023-01-18T17:10:31.387Z,7.38
2023-01-18T17:13:00.094Z,6.20
2023-01-18T17:15:32.324Z,6.18
2023-01-18T17:17:59.155Z,6.13
2023-01-18T17:20:27.270Z,6.47
2023-01-18T17:22:54.802Z,7.63
2023-01-18T17:25:22.473Z,7.65
2023-01-18T17:27:49.413Z,8.05
2023-01-18T17:30:19.553Z,8.70
2023-01-18T17:32:46.951Z,7.72
2023-01-18T17:35:15.158Z,7.57
2023-01-18T17:37:41.909Z,7.05
2023-01-18T17:40:17.065Z,6.30
2023-01-18T17:42:47.451Z,5.85
2023-01-18T17:45:14.684Z,5.97
2023-01-18T17:47:43.294Z,6.32
2023-01-18T17:50:13.408Z,5.78
2023-01-18T17:52:40.905Z,5.55
2023-01-18T17:55:10.335Z,5.82
2023-01-18T17:57:37.127Z,5.75
2023-01-18T18:00:05.597Z,5.55
2023-01-18T18:02:32.354Z,5.10
2023-01-18T18:04:59.319Z,5.05
2023-01-18T18:07:26.126Z,5.30
2023-01-18T18:09:56.697Z,4.38
2023-01-18T18:12:23.670Z,4.72
2023-01-18T18:14:53.204Z,4.38
2023-01-18T18:17:19.963Z,4.13
2023-01-18T18:19:46.642Z,3.85
2023-01-18T18:22:13.372Z,4.50
2023-01-18T18:24:40.242Z,3.88
2023-01-18T18:27:06.940Z,4.20
2023-01-18T18:29:33.591Z,3.97
2023-01-18T18:32:00.454Z,4.07
2023-01-18T18:34:27.285Z,4.03
2023-01-18T18:36:53.940Z,4.07
2023-01-18T18:39:20.645Z,4.55
2023-01-18T18:41:48.110Z,4.50
2023-01-18T18:44:15.208Z,3.80
2023-01-18T18:46:42.170Z,4.45
2023-01-18T18:49:08.866Z,4.95
2023-01-18T18:51:35.552Z,4.50
2023-01-18T18:54:02.732Z,4.80
2023-01-18T18:56:29.413Z,4.28
2023-01-18T18:58:56.228Z,4.95
2023-01-18T19:01:29.226Z,5.35
2023-01-18T19:03:57.171Z,4.82
2023-01-18T19:06:24.111Z,5.45
2023-01-18T19:08:51.191Z,5.18
2023-01-18T19:11:18.145Z,5.10
2023-01-18T19:13:46.049Z,5.25
2023-01-18T19:16:13.938Z,4.80
2023-01-18T19:18:41.174Z,5.32
2023-01-18T19:21:08.217Z,6.10
2023-01-18T19:23:35.005Z,5.53
2023-01-18T19:26:01.728Z,5.97
2023-01-18T19:28:29.276Z,5.50
2023-01-18T19:31:04.747Z,6.00
2023-01-18T19:33:31.510Z,5.43
2023-01-18T19:35:58.478Z,6.15
2023-01-18T19:38:25.235Z,6.80
2023-01-18T19:40:52.089Z,6.40
2023-01-18T19:43:19.701Z,6.68
2023-01-18T19:45:46.462Z,6.40
2023-01-18T19:48:13.185Z,6.35
2023-01-18T19:50:39.899Z,5.72
2023-01-18T19:53:06.611Z,5.63
2023-01-18T19:55:34.637Z,6.88
2023-01-18T19:58:02.079Z,5.82
2023-01-18T20:00:29.669Z,6.28
2023-01-18T20:02:56.527Z,6.47
2023-01-18T20:05:23.274Z,6.00
2023-01-18T20:07:51.147Z,5.90
2023-01-18T20:10:20.159Z,6.63
2023-01-18T20:12:50.394Z,6.50
2023-01-18T20:15:18.768Z,6.32
2023-01-18T20:17:45.668Z,5.70
2023-01-18T20:20:16.159Z,6.10
2023-01-18T20:22:48.001Z,6.47
2023-01-18T20:25:14.769Z,6.53
2023-01-18T20:27:41.480Z,5.88
2023-01-18T20:30:10.136Z,5.93
2023-01-18T20:32:36.833Z,5.53
2023-01-18T20:35:03.869Z,5.93
2023-01-18T20:37:30.479Z,6.10
2023-01-18T20:39:57.166Z,5.50
2023-01-18T20:42:23.837Z,5.60
2023-01-18T20:44:53.598Z,5.95
2023-01-18T20:47:20.349Z,6.43
2023-01-18T20:49:47.104Z,7.25
2023-01-18T20:52:14.000Z,5.93
2023-01-18T20:54:40.651Z,6.43
2023-01-18T20:57:07.408Z,7.40
2023-01-18T20:59:34.342Z,6.50
2023-01-18T21:02:01.885Z,6.97
2023-01-18T21:04:28.778Z,7.32
2023-01-18T21:06:57.765Z,6.55
2023-01-18T21:09:25.210Z,6.60
2023-01-18T21:11:52.087Z,6.35
2023-01-18T21:14:18.759Z,6.05
2023-01-18T21:16:45.463Z,5.80
2023-01-18T21:19:12.624Z,5.82
2023-01-18T21:21:39.318Z,6.43
2023-01-18T21:24:06.449Z,5.78
2023-01-18T21:26:33.165Z,5.40
2023-01-18T21:29:00.053Z,5.80
2023-01-18T21:31:27.171Z,5.90
2023-01-18T21:33:54.620Z,4.95
2023-01-18T21:36:22.836Z,5.75
2023-01-18T21:38:50.041Z,5.63
2023-01-18T21:41:35.219Z,5.45
2023-01-18T21:46:48.945Z,6.13
2023-01-18T21:49:51.898Z,5.70
2023-01-18T21:52:37.490Z,6.03
2023-01-18T21:55:04.479Z,5.93
2023-01-18T21:57:31.116Z,6.35
2023-01-18T21:59:57.881Z,6.85
2023-01-18T22:02:24.725Z,6.28
2023-01-18T22:05:00.611Z,5.65
2023-01-18T22:07:28.195Z,6.20
2023-01-18T22:10:04.115Z,6.55
2023-01-18T22:12:33.316Z,6.18
2023-01-18T22:15:02.176Z,5.95
2023-01-18T22:17:29.208Z,6.55
2023-01-18T22:19:55.901Z,6.43
2023-01-18T22:22:22.615Z,6.22
2023-01-18T22:24:49.279Z,5.80
2023-01-18T22:27:15.941Z,5.85
2023-01-18T22:29:42.637Z,6.07
2023-01-18T22:32:09.403Z,5.93
2023-01-18T22:34:36.244Z,6.20
2023-01-18T22:37:03.514Z,6.15
2023-01-18T22:39:30.212Z,5.90
2023-01-18T22:41:56.913Z,5.90
2023-01-18T22:44:23.924Z,6.43
2023-01-18T22:46:50.665Z,6.47
2023-01-18T22:49:17.568Z,5.93
2023-01-18T22:51:44.275Z,5.93
2023-01-18T22:54:11.084Z,6.20
2023-01-18T22:56:37.749Z,4.80
2023-01-18T22:59:04.423Z,5.78
2023-01-18T23:01:32.934Z,5.30
2023-01-18T23:04:01.529Z,5.38
2023-01-18T23:06:29.146Z,5.55
2023-01-18T23:08:56.643Z,5.20
2023-01-18T23:11:27.867Z,5.43
2023-01-18T23:14:34.829Z,5.50
2023-01-18T23:17:20.126Z,5.63
2023-01-18T23:19:47.287Z,6.00
2023-01-18T23:22:14.003Z,5.65
2023-01-18T23:24:40.674Z,5.50
2023-01-18T23:27:12.388Z,5.28
2023-01-18T23:29:39.761Z,5.65
2023-01-18T23:32:07.379Z,5.75
2023-01-18T23:34:34.114Z,5.22
2023-01-18T23:37:00.751Z,5.82
2023-01-18T23:39:45.960Z,5.68
2023-01-18T23:45:16.088Z,5.35
2023-01-18T23:50:47.234Z,4.93
2023-01-18T23:53:32.620Z,4.93
2023-01-18T23:55:59.985Z,5.15
2023-01-18T23:58:26.809Z,4.82
